This is the latest recevied weather packets stored in our database for station/object N3WAX-1. If no packets are shown the sender has not sent any weather packets the latest 10 day(s).
| Time | Temp. | Humidity | Pressure | Rain* | Wind** | Luminosity | Snow |
|---|---|---|---|---|---|---|---|
| 1777758891 | 12.78° C | 48% | 1011.6 hPa | 0 mm | - | 139 W/m² | - |
| 1777756927 | 13.33° C | 51% | 1011.4 hPa | 0 mm | - | 283 W/m² | - |
| 1777756463 | 12.78° C | 47% | 1011.4 hPa | 0 mm | - | 239 W/m² | - |
| 1777752998 | 14.44° C | 50% | 1011.2 hPa | 0 mm | - | 810 W/m² | - |
| 1777752095 | 14.44° C | 50% | 1011.3 hPa | 0 mm | - | 483 W/m² | - |
| 1777751494 | 13.33° C | 45% | 1011.4 hPa | 0 mm | - | 439 W/m² | - |
| 1777750435 | 13.89° C | 48% | 1011.8 hPa | 0 mm | - | 418 W/m² | - |
| 1777748488 | 14.44° C | 49% | 1012.3 hPa | 0 mm | - | 1032 W/m² | - |
| 1777747588 | 13.89° C | 52% | 1012.4 hPa | 0 mm | - | 763 W/m² | - |
| 1777747288 | 14.44° C | 50% | 1012.5 hPa | 0 mm | - | 696 W/m² | - |
| 1777746388 | 14.44° C | 53% | 1012.7 hPa | 0 mm | - | 1225 W/m² | - |
| 1777746231 | 14.44° C | 55% | 1012.7 hPa | 0 mm | - | 1018 W/m² | - |
| 1777745792 | 13.33° C | 56% | 1012.8 hPa | 0 mm | - | 527 W/m² | - |
| 1777735877 | 12.78° C | 64% | 1013.6 hPa | 0 mm | - | 729 W/m² | - |
| 1777734975 | 12.22° C | 63% | 1013.6 hPa | 0 mm | - | 584 W/m² | - |
| 1777733319 | 11.67° C | 71% | 1013.3 hPa | 0 mm | - | 868 W/m² | - |
| 1777730919 | 10.56° C | 72% | 1013.4 hPa | 0 mm | - | 485 W/m² | - |
| 1777729576 | 10° C | 76% | 1013.6 hPa | 0 mm | - | 294 W/m² | - |
| 1777727310 | 8.89° C | 82% | 1013.6 hPa | 0 mm | - | 265 W/m² | - |
| 1777725066 | 7.78° C | 82% | 1013.7 hPa | 0 mm | - | 265 W/m² | - |
| 1777724463 | 7.78° C | 81% | 1013.6 hPa | 0 mm | - | 255 W/m² | - |
| 1777719501 | 8.33° C | 86% | 1013 hPa | 0 mm | - | 91 W/m² | - |
| 1777718142 | 7.78° C | 84% | 1012.7 hPa | 0 mm | - | 37 W/m² | - |
| 1777717975 | 8.33° C | 84% | 1012.5 hPa | 0 mm | - | 21 W/m² | - |
| 1777717233 | 8.33° C | 84% | 1012.4 hPa | 0 mm | - | 16 W/m² | - |
* Rain latest hour (hover to see other rain measurements)
** Current wind speed in m/s (hover to see current wind gust speed)